createdAt,value
2018-12-20T00:00:25.081Z,99.60
2018-12-20T00:02:55.714Z,99.70
2018-12-20T00:05:26.297Z,99.80
2018-12-20T00:07:56.914Z,99.80
2018-12-20T00:10:27.673Z,99.80
2018-12-20T00:12:58.131Z,99.90
2018-12-20T00:15:28.585Z,99.90
2018-12-20T00:17:59.177Z,99.90
2018-12-20T00:20:29.808Z,99.90
2018-12-20T00:23:00.509Z,99.90
2018-12-20T00:25:31.056Z,99.90
2018-12-20T00:28:01.613Z,99.90
2018-12-20T00:30:32.386Z,99.90
2018-12-20T00:33:02.932Z,99.90
2018-12-20T00:35:33.474Z,99.90
2018-12-20T00:38:04.117Z,99.90
2018-12-20T00:40:34.712Z,99.90
2018-12-20T00:43:05.424Z,99.90
2018-12-20T00:45:36.946Z,99.90
2018-12-20T00:48:07.538Z,99.90
2018-12-20T00:50:38.062Z,99.80
2018-12-20T00:53:08.635Z,99.80
2018-12-20T00:55:39.121Z,99.80
2018-12-20T00:58:09.693Z,99.80
2018-12-20T01:00:41.936Z,99.90
2018-12-20T01:03:12.546Z,99.80
2018-12-20T01:05:43.195Z,99.80
2018-12-20T01:08:13.923Z,99.80
2018-12-20T01:10:44.455Z,99.80
2018-12-20T01:13:15.355Z,99.70
2018-12-20T01:15:45.847Z,99.80
2018-12-20T01:18:16.338Z,99.90
2018-12-20T01:20:46.984Z,99.70
2018-12-20T01:23:17.537Z,99.70
2018-12-20T01:25:47.996Z,99.70
2018-12-20T01:28:18.557Z,99.70
2018-12-20T01:30:49.183Z,99.70
2018-12-20T01:33:19.895Z,99.90
2018-12-20T01:35:50.496Z,99.80
2018-12-20T01:38:20.926Z,99.80
2018-12-20T01:40:51.461Z,99.80
2018-12-20T01:43:22.036Z,99.90
2018-12-20T01:45:52.481Z,99.90
2018-12-20T01:48:22.993Z,99.90
2018-12-20T01:50:53.437Z,99.90
2018-12-20T01:53:24.134Z,99.90
2018-12-20T01:55:54.606Z,99.90
2018-12-20T01:58:25.051Z,99.90
2018-12-20T02:00:55.830Z,99.90
2018-12-20T02:03:26.926Z,99.90
2018-12-20T02:05:57.426Z,99.90
2018-12-20T02:08:27.874Z,99.90
2018-12-20T02:10:58.629Z,99.90
2018-12-20T02:13:51.070Z,99.90
2018-12-20T02:16:21.617Z,99.90
2018-12-20T02:18:52.208Z,99.90
2018-12-20T02:21:22.812Z,99.90
2018-12-20T02:23:53.329Z,99.90
2018-12-20T02:26:24.031Z,99.90
2018-12-20T02:28:54.543Z,99.90
2018-12-20T02:31:25.160Z,99.90
2018-12-20T02:33:55.930Z,99.90
2018-12-20T02:36:26.622Z,99.90
2018-12-20T02:38:57.154Z,99.90
2018-12-20T02:41:27.815Z,99.90
2018-12-20T02:43:58.343Z,99.90
2018-12-20T02:46:28.863Z,99.90
2018-12-20T02:48:59.376Z,99.90
2018-12-20T02:51:29.977Z,99.90
2018-12-20T02:54:00.615Z,99.90
2018-12-20T02:56:31.073Z,99.90
2018-12-20T02:59:01.715Z,99.90
2018-12-20T03:01:32.376Z,99.90
2018-12-20T03:04:03.061Z,99.90
2018-12-20T03:06:45.777Z,99.90
2018-12-20T03:09:16.591Z,99.90
2018-12-20T03:11:47.066Z,99.90
2018-12-20T03:14:17.788Z,99.90
2018-12-20T03:16:48.503Z,99.90
2018-12-20T03:19:19.288Z,99.90
2018-12-20T03:21:49.893Z,99.90
2018-12-20T03:24:20.412Z,99.90
2018-12-20T03:26:50.992Z,99.90
2018-12-20T03:29:21.663Z,99.90
2018-12-20T03:31:52.355Z,99.90
2018-12-20T03:34:22.982Z,99.90
2018-12-20T03:37:02.915Z,99.90
2018-12-20T03:39:33.551Z,99.90
2018-12-20T03:42:04.223Z,99.90
2018-12-20T03:44:34.958Z,99.90
2018-12-20T03:47:05.929Z,99.90
2018-12-20T03:49:36.547Z,99.90
2018-12-20T03:52:07.486Z,99.90
2018-12-20T03:54:38.108Z,99.90
2018-12-20T03:57:08.552Z,99.90
2018-12-20T03:59:39.299Z,99.90
2018-12-20T04:02:10.043Z,99.90
2018-12-20T04:04:40.834Z,99.90
2018-12-20T04:07:11.359Z,99.90
2018-12-20T04:09:42.218Z,99.90
2018-12-20T04:12:12.930Z,99.90
2018-12-20T04:14:43.692Z,99.90
2018-12-20T04:17:15.048Z,99.90
2018-12-20T04:19:45.529Z,99.90
2018-12-20T04:22:16.017Z,99.90
2018-12-20T04:24:46.722Z,99.90
2018-12-20T04:27:17.337Z,99.90
2018-12-20T04:29:48.085Z,99.90
2018-12-20T04:32:18.718Z,99.90
2018-12-20T04:34:49.589Z,99.90
2018-12-20T04:37:20.280Z,99.90
2018-12-20T04:39:51.116Z,99.90
2018-12-20T04:42:33.770Z,99.90
2018-12-20T04:45:04.684Z,99.90
2018-12-20T04:47:35.614Z,99.90
2018-12-20T04:50:06.949Z,99.90
2018-12-20T04:52:37.492Z,99.90
2018-12-20T04:55:08.204Z,99.90
2018-12-20T04:57:39.006Z,99.90
2018-12-20T05:00:12.335Z,99.90
2018-12-20T05:02:43.360Z,99.90
2018-12-20T05:05:14.194Z,99.90
2018-12-20T05:07:45.055Z,99.90
2018-12-20T05:10:15.861Z,99.90
2018-12-20T05:12:46.706Z,99.90
2018-12-20T05:15:17.411Z,99.90
2018-12-20T05:17:48.018Z,99.90
2018-12-20T05:20:18.942Z,99.90
2018-12-20T05:22:49.606Z,99.90
2018-12-20T05:25:30.588Z,99.90
2018-12-20T05:28:11.553Z,99.90
2018-12-20T05:34:51.292Z,99.90
2018-12-20T05:37:21.871Z,99.90
2018-12-20T05:39:53.131Z,99.90
2018-12-20T05:42:25.024Z,99.90
2018-12-20T05:44:55.486Z,99.90
2018-12-20T05:47:26.189Z,99.90
2018-12-20T05:49:56.815Z,99.90
2018-12-20T05:52:27.479Z,99.90
2018-12-20T05:55:29.545Z,99.90
2018-12-20T05:58:09.236Z,99.90
2018-12-20T06:00:54.664Z,99.90
2018-12-20T06:03:25.562Z,99.90
2018-12-20T06:05:57.690Z,99.90
2018-12-20T06:08:35.557Z,99.90
2018-12-20T06:11:32.789Z,99.90
2018-12-20T06:14:53.808Z,99.90
2018-12-20T06:17:55.653Z,99.90
2018-12-20T06:26:57.465Z,99.90
2018-12-20T06:29:43.025Z,99.90
2018-12-20T06:50:40.175Z,99.90
2018-12-20T06:53:39.994Z,99.90
2018-12-20T07:10:47.046Z,99.90
2018-12-20T07:20:19.967Z,99.90
2018-12-20T07:32:35.905Z,99.90
2018-12-20T07:35:14.976Z,99.90
2018-12-20T07:38:39.309Z,99.90
2018-12-20T08:01:18.007Z,99.90
2018-12-20T08:03:56.345Z,99.90
2018-12-20T08:12:55.380Z,99.90
2018-12-20T08:15:27.016Z,99.90
2018-12-20T08:18:00.505Z,99.90
2018-12-20T08:20:51.485Z,99.90
2018-12-20T08:26:02.680Z,99.90
2018-12-20T08:28:37.966Z,99.90
2018-12-20T08:31:16.231Z,99.90
2018-12-20T08:33:59.390Z,99.90
2018-12-20T08:36:32.186Z,99.90
2018-12-20T08:39:11.406Z,99.90
2018-12-20T08:49:02.084Z,99.90
2018-12-20T09:01:43.100Z,99.90
2018-12-20T09:17:20.175Z,99.90
2018-12-20T10:02:30.675Z,99.90
2018-12-20T10:05:22.220Z,99.90
2018-12-20T10:08:10.803Z,99.90
2018-12-20T10:32:50.137Z,99.90
2018-12-20T10:35:20.914Z,99.90
2018-12-20T10:37:51.666Z,99.90
2018-12-20T10:40:22.486Z,99.90
2018-12-20T10:45:29.178Z,99.90
2018-12-20T10:47:59.975Z,99.90
2018-12-20T10:50:30.714Z,99.90
2018-12-20T10:56:01.602Z,99.90
2018-12-20T10:58:32.342Z,99.90
2018-12-20T11:03:11.891Z,99.90
2018-12-20T11:05:47.587Z,99.90
2018-12-20T11:08:27.318Z,99.90
2018-12-20T11:11:06.523Z,99.90
2018-12-20T11:13:37.255Z,99.90
2018-12-20T11:16:08.052Z,99.90
2018-12-20T11:18:39.069Z,99.80
2018-12-20T11:21:10.014Z,99.90
2018-12-20T11:23:40.906Z,99.80
2018-12-20T11:26:11.316Z,99.70
2018-12-20T11:28:42.635Z,99.80
2018-12-20T11:31:13.517Z,99.90
2018-12-20T11:33:44.198Z,99.90
2018-12-20T11:36:14.877Z,99.90
2018-12-20T11:38:45.530Z,99.80
2018-12-20T11:41:16.075Z,99.80
2018-12-20T11:43:46.718Z,99.70
2018-12-20T11:46:17.440Z,99.70
2018-12-20T11:48:48.387Z,99.70
2018-12-20T11:51:19.292Z,99.70
2018-12-20T11:53:50.124Z,99.70
2018-12-20T11:56:20.939Z,99.70
2018-12-20T11:58:51.751Z,99.70
2018-12-20T12:01:22.557Z,99.60
2018-12-20T12:03:57.601Z,99.70
2018-12-20T12:19:48.820Z,99.60
2018-12-20T12:22:19.652Z,99.50
2018-12-20T12:24:50.428Z,99.40
2018-12-20T12:27:21.501Z,99.30
2018-12-20T12:29:52.786Z,99.30
2018-12-20T12:32:23.702Z,99.10
2018-12-20T12:34:54.572Z,99.10
2018-12-20T12:37:25.438Z,98.90
2018-12-20T12:39:56.498Z,99.00
2018-12-20T12:42:27.198Z,99.00
2018-12-20T12:44:58.251Z,99.00
2018-12-20T12:47:34.133Z,99.10
2018-12-20T12:50:05.284Z,99.10
2018-12-20T12:52:36.163Z,99.00
2018-12-20T12:55:07.443Z,98.80
2018-12-20T12:57:39.174Z,98.70
2018-12-20T13:00:13.154Z,98.70
2018-12-20T13:02:44.090Z,98.60
2018-12-20T13:05:14.770Z,98.40
2018-12-20T13:07:45.763Z,98.20
2018-12-20T13:10:16.795Z,98.20
2018-12-20T13:12:47.678Z,98.20
2018-12-20T13:15:18.678Z,98.20
2018-12-20T13:17:49.644Z,98.30
2018-12-20T13:20:20.854Z,98.10
2018-12-20T13:22:51.736Z,98.20
2018-12-20T13:25:22.434Z,98.20
2018-12-20T13:27:53.366Z,98.20
2018-12-20T13:30:24.238Z,98.00
2018-12-20T13:32:55.127Z,98.20
2018-12-20T13:35:26.126Z,98.30
2018-12-20T13:37:56.998Z,98.60
2018-12-20T13:40:27.891Z,98.60
2018-12-20T13:42:59.180Z,98.70
2018-12-20T13:45:32.051Z,98.80
2018-12-20T13:48:02.517Z,99.20
2018-12-20T13:50:37.318Z,99.00
2018-12-20T13:53:13.549Z,99.00
2018-12-20T13:55:46.132Z,98.90
2018-12-20T13:58:16.943Z,98.90
2018-12-20T14:00:51.678Z,98.90
2018-12-20T14:03:22.378Z,98.80
2018-12-20T14:05:56.443Z,98.80
2018-12-20T14:08:33.046Z,98.80
2018-12-20T14:11:11.882Z,98.70
2018-12-20T14:13:42.593Z,98.70
2018-12-20T14:16:13.271Z,98.60
2018-12-20T14:18:44.074Z,98.60
2018-12-20T14:21:14.635Z,98.70
2018-12-20T14:23:50.926Z,98.70
2018-12-20T14:26:45.560Z,98.50
2018-12-20T14:29:22.680Z,98.70
2018-12-20T14:31:53.901Z,98.80
2018-12-20T14:34:25.401Z,98.90
2018-12-20T14:36:57.515Z,99.00
2018-12-20T14:39:28.336Z,99.00
2018-12-20T14:42:05.970Z,99.00
2018-12-20T14:44:43.402Z,99.20
2018-12-20T14:47:14.343Z,99.20
2018-12-20T14:49:47.181Z,99.30
2018-12-20T14:52:17.879Z,99.20
2018-12-20T14:54:48.597Z,99.30
2018-12-20T14:57:27.820Z,99.40
2018-12-20T15:00:01.075Z,99.40
2018-12-20T15:02:44.877Z,99.40
2018-12-20T15:39:42.817Z,99.90
2018-12-20T15:42:13.700Z,99.90
2018-12-20T15:44:51.608Z,99.90
2018-12-20T15:47:22.280Z,99.90
2018-12-20T15:49:53.111Z,99.90
2018-12-20T15:52:23.811Z,99.90
2018-12-20T15:54:54.497Z,99.90
2018-12-20T15:57:25.181Z,99.90
2018-12-20T15:59:55.907Z,99.90
2018-12-20T16:05:27.070Z,99.90
2018-12-20T16:11:09.557Z,99.90
2018-12-20T16:13:45.918Z,99.90
2018-12-20T16:16:22.465Z,99.90
2018-12-20T16:18:53.631Z,99.90
2018-12-20T16:21:24.666Z,99.90
2018-12-20T16:23:55.776Z,99.90
2018-12-20T16:26:26.647Z,99.90
2018-12-20T16:28:58.640Z,99.90
2018-12-20T16:31:29.277Z,99.90
2018-12-20T16:34:00.094Z,99.90
2018-12-20T16:36:30.937Z,99.90
2018-12-20T16:39:01.719Z,99.90
2018-12-20T16:41:32.512Z,99.90
2018-12-20T16:44:03.100Z,99.90
2018-12-20T16:46:33.694Z,99.90
2018-12-20T16:49:13.374Z,99.90
2018-12-20T16:51:37.822Z,99.90
2018-12-20T16:54:08.366Z,99.90
2018-12-20T16:56:38.922Z,99.90
2018-12-20T16:59:09.537Z,99.90
2018-12-20T17:01:40.256Z,99.90
2018-12-20T17:04:10.875Z,99.90
2018-12-20T17:06:41.798Z,99.90
2018-12-20T17:09:12.873Z,99.90
2018-12-20T17:11:43.696Z,99.90
2018-12-20T17:14:14.507Z,99.90
2018-12-20T17:16:45.479Z,99.90
2018-12-20T17:19:22.049Z,99.90
2018-12-20T17:21:49.615Z,99.90
2018-12-20T17:24:20.551Z,99.90
2018-12-20T17:26:52.405Z,99.90
2018-12-20T17:29:23.455Z,99.90
2018-12-20T17:31:54.542Z,99.90
2018-12-20T17:34:26.476Z,99.90
2018-12-20T17:37:13.250Z,99.90
2018-12-20T17:39:48.911Z,99.90
2018-12-20T17:42:20.352Z,99.90
2018-12-20T17:44:51.889Z,99.90
2018-12-20T17:47:23.328Z,99.90
2018-12-20T17:49:54.551Z,99.90
2018-12-20T17:52:26.011Z,99.90
2018-12-20T17:54:57.649Z,99.90
2018-12-20T17:57:29.016Z,99.90
2018-12-20T18:00:00.226Z,99.90
2018-12-20T18:02:31.868Z,99.90
2018-12-20T18:05:07.055Z,99.90
2018-12-20T18:07:37.959Z,99.90
2018-12-20T18:10:13.047Z,99.90
2018-12-20T18:12:45.137Z,99.90
2018-12-20T18:15:16.934Z,99.90
2018-12-20T18:17:48.627Z,99.90
2018-12-20T18:20:20.332Z,99.90
2018-12-20T18:22:54.900Z,99.90
2018-12-20T18:25:27.735Z,99.90
2018-12-20T18:28:00.999Z,99.90
2018-12-20T18:31:01.593Z,99.90
2018-12-20T18:33:35.300Z,99.90
2018-12-20T18:36:07.202Z,99.90
2018-12-20T18:38:39.505Z,99.90
2018-12-20T18:41:11.404Z,99.90
2018-12-20T18:43:44.525Z,99.90
2018-12-20T18:46:16.188Z,99.90
2018-12-20T18:48:48.014Z,99.90
2018-12-20T18:51:19.907Z,99.90
2018-12-20T18:53:53.017Z,99.90
2018-12-20T18:56:27.288Z,99.90
2018-12-20T18:58:59.041Z,99.90
2018-12-20T19:01:30.877Z,99.90
2018-12-20T19:04:02.568Z,99.90
2018-12-20T19:06:34.079Z,99.90
2018-12-20T19:09:07.737Z,99.90
2018-12-20T19:11:39.140Z,99.90
2018-12-20T19:14:10.244Z,99.90
2018-12-20T19:16:42.613Z,99.90
2018-12-20T19:19:15.595Z,99.90
2018-12-20T19:21:49.374Z,99.90
2018-12-20T19:24:21.530Z,99.90
2018-12-20T19:26:56.292Z,99.90
2018-12-20T19:29:28.857Z,99.90
2018-12-20T19:32:16.171Z,99.90
2018-12-20T19:34:50.439Z,99.90
2018-12-20T19:37:25.649Z,99.90
2018-12-20T19:40:02.771Z,99.90
2018-12-20T19:42:41.445Z,99.90
2018-12-20T19:45:20.646Z,99.90
2018-12-20T19:47:54.687Z,99.90
2018-12-20T19:50:49.430Z,99.90
2018-12-20T19:53:26.487Z,99.90
2018-12-20T19:56:04.765Z,99.90
2018-12-20T20:01:41.090Z,99.90
2018-12-20T20:04:21.236Z,99.90
2018-12-20T20:07:03.265Z,99.90
2018-12-20T20:09:48.492Z,99.90
2018-12-20T20:12:22.256Z,99.90
2018-12-20T20:14:54.526Z,99.90
2018-12-20T20:17:27.392Z,99.90
2018-12-20T20:20:00.149Z,99.90
2018-12-20T20:22:33.750Z,99.90
2018-12-20T20:25:47.804Z,99.90
2018-12-20T20:28:19.992Z,99.90
2018-12-20T20:30:52.040Z,99.90
2018-12-20T20:33:37.681Z,99.90
2018-12-20T20:36:11.737Z,99.90
2018-12-20T20:38:52.670Z,99.90
2018-12-20T20:41:29.323Z,99.90
2018-12-20T20:44:01.457Z,99.90
2018-12-20T20:46:33.263Z,99.90
2018-12-20T20:49:05.433Z,99.90
2018-12-20T20:51:37.448Z,99.90
2018-12-20T20:54:09.321Z,99.90
2018-12-20T20:56:41.260Z,99.90
2018-12-20T20:59:14.986Z,99.90
2018-12-20T21:01:46.927Z,99.90
2018-12-20T21:04:18.650Z,99.90
2018-12-20T21:06:50.533Z,99.90
2018-12-20T21:09:23.323Z,99.90
2018-12-20T21:11:57.409Z,99.90
2018-12-20T21:14:29.172Z,99.90
2018-12-20T21:17:02.079Z,99.90
2018-12-20T21:19:34.006Z,99.90
2018-12-20T21:22:06.473Z,99.90
2018-12-20T21:24:38.318Z,99.90
2018-12-20T21:27:11.456Z,99.90
2018-12-20T21:29:44.823Z,99.90
2018-12-20T21:32:16.921Z,99.90
2018-12-20T21:34:52.251Z,99.90
2018-12-20T21:37:23.899Z,99.90
2018-12-20T21:39:55.635Z,99.90
2018-12-20T21:42:28.430Z,99.90
2018-12-20T21:45:00.160Z,99.90
2018-12-20T21:47:31.991Z,99.90
2018-12-20T21:50:03.931Z,99.90
2018-12-20T21:52:38.798Z,99.90
2018-12-20T21:55:12.562Z,99.90
2018-12-20T21:57:45.806Z,99.90
2018-12-20T22:00:19.041Z,99.90
2018-12-20T22:02:51.748Z,99.90
2018-12-20T22:05:23.593Z,99.90
2018-12-20T22:07:55.324Z,99.90
2018-12-20T22:10:26.887Z,99.90
2018-12-20T22:12:58.886Z,99.90
2018-12-20T22:15:30.655Z,99.90
2018-12-20T22:18:03.128Z,99.90
2018-12-20T22:20:35.625Z,99.90
2018-12-20T22:23:07.024Z,99.90
2018-12-20T22:25:38.406Z,99.90
2018-12-20T22:28:11.390Z,99.90
2018-12-20T22:30:42.815Z,99.90
2018-12-20T22:33:16.646Z,99.90
2018-12-20T22:35:48.381Z,99.90
2018-12-20T22:38:19.698Z,99.90
2018-12-20T22:40:50.803Z,99.90
2018-12-20T22:43:58.003Z,99.90
2018-12-20T22:46:30.721Z,99.90
2018-12-20T22:49:04.937Z,99.90
